Time;durP1;ratioP1;P1;durP2;ratioP2;P2;SDS_P1;SDS_P2;PMS_P1;PMS_P2;Temp;Humidity;BMP_temperature;BMP_pressure;BME280_temperature;BME280_humidity;BME280_pressure;Samples;Min_cycle;Max_cycle;Signal;HPM_P1;HPM_P2
2021/07/17 00:01:49;;;;;;;1.25;0.70;;;18.50;99.90;;;;;;5016563;28;20228;-77
2021/07/17 00:04:16;;;;;;;0.60;0.60;;;18.40;99.90;;;;;;5024252;28;20251;-77
2021/07/17 00:06:43;;;;;;;0.60;0.60;;;18.40;99.90;;;;;;5013773;28;20714;-76
2021/07/17 00:09:10;;;;;;;0.70;0.70;;;18.40;99.90;;;;;;5026376;28;20306;-77
2021/07/17 00:11:37;;;;;;;0.82;0.63;;;18.40;99.90;;;;;;5017322;28;20233;-77
2021/07/17 00:14:06;;;;;;;0.63;0.63;;;18.40;99.90;;;;;;5019591;28;20239;-77
2021/07/17 00:16:34;;;;;;;0.63;0.63;;;18.30;99.90;;;;;;5015907;28;20227;-78
2021/07/17 00:19:01;;;;;;;1.45;0.70;;;18.30;99.90;;;;;;5021890;28;20308;-77
2021/07/17 00:21:28;;;;;;;0.80;0.80;;;18.30;99.90;;;;;;5019960;28;20939;-77
2021/07/17 00:23:55;;;;;;;0.60;0.60;;;18.30;99.90;;;;;;5015844;28;20286;-77
2021/07/17 00:26:22;;;;;;;0.70;0.70;;;18.30;99.90;;;;;;5019205;28;20224;-77
2021/07/17 00:28:49;;;;;;;0.70;0.70;;;18.20;99.90;;;;;;5018760;28;20219;-78
2021/07/17 00:31:18;;;;;;;0.57;0.57;;;18.30;99.90;;;;;;5011557;28;20281;-77
2021/07/17 00:33:44;;;;;;;2.17;0.80;;;18.30;99.90;;;;;;5018492;28;20281;-78
2021/07/17 00:36:12;;;;;;;0.60;0.60;;;18.20;99.90;;;;;;5027070;28;20241;-79
2021/07/17 00:38:39;;;;;;;1.55;0.90;;;18.10;99.90;;;;;;5015351;28;20653;-78
2021/07/17 00:41:06;;;;;;;1.33;0.50;;;18.10;99.90;;;;;;5015322;28;20309;-77
2021/07/17 00:43:34;;;;;;;0.47;0.47;;;18.00;99.90;;;;;;5016922;28;20231;-76
2021/07/17 00:46:01;;;;;;;0.70;0.70;;;18.10;99.90;;;;;;5016368;28;20231;-76
2021/07/17 00:48:30;;;;;;;0.60;0.60;;;18.20;99.90;;;;;;5020836;28;20230;-77
2021/07/17 00:50:57;;;;;;;0.68;0.68;;;18.20;99.90;;;;;;5019841;28;20247;-77
2021/07/17 00:53:24;;;;;;;0.60;0.60;;;18.10;99.90;;;;;;5018803;28;20220;-76
2021/07/17 00:55:52;;;;;;;0.70;0.70;;;17.80;99.90;;;;;;5019595;28;20215;-77
2021/07/17 00:58:24;;;;;;;0.93;0.93;;;17.70;99.90;;;;;;5019993;28;20224;-77
2021/07/17 01:00:53;;;;;;;0.80;0.80;;;17.70;99.90;;;;;;5018363;28;20228;-76
2021/07/17 01:03:20;;;;;;;1.20;0.60;;;17.70;99.90;;;;;;5017438;28;20223;-76
2021/07/17 01:05:49;;;;;;;0.73;0.73;;;17.80;99.90;;;;;;5020758;28;20226;-76
2021/07/17 01:08:17;;;;;;;0.70;0.70;;;17.90;99.90;;;;;;5018697;28;20734;-77
2021/07/17 01:10:44;;;;;;;0.63;0.63;;;18.00;99.90;;;;;;5023110;28;20576;-75
2021/07/17 01:13:11;;;;;;;0.73;0.70;;;18.10;99.90;;;;;;5023435;28;20215;-76
2021/07/17 01:15:38;;;;;;;0.70;0.70;;;18.00;99.90;;;;;;5022319;28;20227;-75
2021/07/17 01:18:06;;;;;;;0.70;0.70;;;18.10;99.90;;;;;;5019191;28;20238;-76
2021/07/17 01:20:34;;;;;;;0.57;0.57;;;18.10;99.90;;;;;;5027155;28;20281;-77
2021/07/17 01:23:03;;;;;;;0.60;0.60;;;18.20;99.90;;;;;;5013795;28;20286;-76
2021/07/17 01:25:33;;;;;;;0.68;0.68;;;18.20;99.90;;;;;;5023875;28;20566;-75
2021/07/17 01:28:01;;;;;;;0.63;0.63;;;18.20;99.90;;;;;;5025805;28;20224;-78
2021/07/17 01:30:30;;;;;;;1.05;0.63;;;18.20;99.90;;;;;;5019063;28;20320;-76
2021/07/17 01:32:58;;;;;;;0.57;0.57;;;18.20;99.90;;;;;;5018458;28;20691;-76
2021/07/17 01:35:26;;;;;;;0.60;0.60;;;18.20;99.90;;;;;;5018257;28;20231;-76
2021/07/17 01:37:54;;;;;;;0.77;0.77;;;18.20;99.90;;;;;;5021245;28;20324;-76
2021/07/17 01:40:22;;;;;;;0.73;0.73;;;18.20;99.90;;;;;;5012366;28;20223;-76
2021/07/17 01:42:52;;;;;;;0.70;0.70;;;18.20;99.90;;;;;;5016211;28;20224;-76
2021/07/17 01:45:24;;;;;;;1.35;0.60;;;18.20;99.90;;;;;;5013118;28;20640;-76
2021/07/17 01:47:52;;;;;;;0.65;0.65;;;18.20;99.90;;;;;;5014259;28;20270;-76
2021/07/17 01:50:19;;;;;;;0.63;0.63;;;18.20;99.90;;;;;;5017023;28;20215;-77
2021/07/17 01:52:49;;;;;;;0.60;0.60;;;18.10;99.90;;;;;;5015962;28;20219;-76
2021/07/17 01:55:17;;;;;;;0.68;0.68;;;18.20;99.90;;;;;;5022414;28;20298;-76
2021/07/17 01:57:46;;;;;;;0.70;0.70;;;18.10;99.90;;;;;;5013985;28;20216;-77
2021/07/17 02:00:15;;;;;;;0.77;0.73;;;18.20;99.90;;;;;;5016100;28;20228;-76
2021/07/17 02:02:42;;;;;;;0.77;0.77;;;18.10;99.90;;;;;;5010737;28;20367;-76
2021/07/17 02:05:10;;;;;;;0.70;0.70;;;18.10;99.90;;;;;;5013357;28;20231;-76
2021/07/17 02:07:37;;;;;;;0.80;0.80;;;18.10;99.90;;;;;;5014613;28;20274;-77
2021/07/17 02:10:07;;;;;;;0.70;0.70;;;18.10;99.90;;;;;;5010784;28;20232;-76
2021/07/17 02:12:34;;;;;;;0.50;0.50;;;18.10;99.90;;;;;;5013770;28;20227;-76
2021/07/17 02:15:03;;;;;;;0.60;0.60;;;18.10;99.90;;;;;;5013504;28;20227;-76
2021/07/17 02:17:30;;;;;;;0.80;0.80;;;18.00;99.90;;;;;;5007541;28;20212;-75
2021/07/17 02:19:57;;;;;;;0.68;0.68;;;18.00;99.90;;;;;;5026830;28;20255;-76
2021/07/17 02:22:24;;;;;;;0.80;0.80;;;18.00;99.90;;;;;;5012897;28;20642;-75
2021/07/17 02:24:54;;;;;;;0.90;0.90;;;18.00;99.90;;;;;;5009373;28;20227;-77
2021/07/17 02:27:21;;;;;;;0.60;0.60;;;18.00;99.90;;;;;;5013546;28;20219;-76
2021/07/17 02:29:48;;;;;;;0.70;0.70;;;18.00;99.90;;;;;;5016264;28;20212;-76
2021/07/17 02:32:16;;;;;;;0.60;0.60;;;18.10;99.90;;;;;;5013161;28;20779;-77
2021/07/17 02:34:43;;;;;;;0.60;0.60;;;18.00;99.90;;;;;;5014119;28;20218;-75
2021/07/17 02:37:12;;;;;;;0.63;0.63;;;18.10;99.90;;;;;;5013691;28;20224;-77
2021/07/17 02:39:39;;;;;;;0.70;0.70;;;18.10;99.90;;;;;;5016816;28;20278;-76
2021/07/17 02:42:06;;;;;;;0.60;0.60;;;18.00;99.90;;;;;;5011612;28;20298;-76
2021/07/17 02:44:33;;;;;;;0.63;0.63;;;18.00;99.90;;;;;;5016161;28;20219;-76
2021/07/17 02:47:00;;;;;;;1.50;0.77;;;17.90;99.90;;;;;;5016920;28;20227;-75
2021/07/17 02:49:28;;;;;;;3.85;0.90;;;17.70;99.90;;;;;;5019685;28;20228;-76
2021/07/17 02:51:55;;;;;;;1.75;0.70;;;17.60;99.90;;;;;;5006707;28;20227;-76
2021/07/17 02:54:23;;;;;;;0.82;0.80;;;17.60;99.90;;;;;;5011003;28;20224;-76
2021/07/17 02:56:50;;;;;;;0.70;0.70;;;17.60;99.90;;;;;;5015894;28;20282;-76
2021/07/17 02:59:17;;;;;;;0.70;0.70;;;17.60;99.90;;;;;;5017635;28;20620;-76
2021/07/17 03:01:44;;;;;;;1.40;0.70;;;17.70;99.90;;;;;;5013410;28;20227;-76
2021/07/17 03:04:11;;;;;;;0.70;0.70;;;17.70;99.90;;;;;;5013391;28;20652;-76
2021/07/17 03:06:39;;;;;;;1.33;0.68;;;17.80;99.90;;;;;;5012299;28;20223;-75
2021/07/17 03:09:06;;;;;;;0.80;0.80;;;17.80;99.90;;;;;;5017758;28;20227;-76
2021/07/17 03:11:34;;;;;;;1.10;0.70;;;17.90;99.90;;;;;;5029234;28;20269;-76
2021/07/17 03:14:01;;;;;;;0.60;0.60;;;17.90;99.90;;;;;;5017893;28;20819;-77
2021/07/17 03:16:29;;;;;;;0.80;0.80;;;17.90;99.90;;;;;;5018787;28;20282;-76
2021/07/17 03:18:56;;;;;;;0.60;0.60;;;17.90;99.90;;;;;;5015411;28;20701;-76
2021/07/17 03:21:23;;;;;;;0.70;0.70;;;17.90;99.90;;;;;;5019627;28;20278;-76
2021/07/17 03:23:51;;;;;;;0.90;0.90;;;17.80;99.90;;;;;;5011107;28;20224;-76
2021/07/17 03:26:18;;;;;;;0.70;0.70;;;17.60;99.90;;;;;;5017331;28;20274;-76
2021/07/17 03:28:45;;;;;;;0.75;0.75;;;17.40;99.90;;;;;;5014947;28;20223;-76
2021/07/17 03:31:13;;;;;;;1.08;0.93;;;17.40;99.90;;;;;;5016319;28;20641;-75
2021/07/17 03:33:40;;;;;;;0.60;0.60;;;17.50;99.90;;;;;;5016664;28;20282;-77
2021/07/17 03:36:07;;;;;;;0.73;0.73;;;17.60;99.90;;;;;;5016822;28;20219;-76
2021/07/17 03:38:34;;;;;;;0.75;0.75;;;17.70;99.90;;;;;;5019028;28;20261;-76
2021/07/17 03:41:02;;;;;;;1.20;0.82;;;17.70;99.90;;;;;;5017271;28;20230;-77
2021/07/17 03:43:29;;;;;;;0.70;0.70;;;17.50;99.90;;;;;;5020129;28;20226;-76
2021/07/17 03:45:56;;;;;;;0.60;0.60;;;17.40;99.90;;;;;;5017570;28;20963;-75
2021/07/17 03:48:23;;;;;;;0.68;0.68;;;17.40;99.90;;;;;;5023216;28;20224;-76
2021/07/17 03:50:50;;;;;;;0.63;0.63;;;17.40;99.90;;;;;;5017785;28;20814;-77
2021/07/17 03:53:17;;;;;;;1.58;0.82;;;17.40;99.90;;;;;;5016834;28;20224;-77
2021/07/17 03:55:44;;;;;;;1.08;0.57;;;17.50;99.90;;;;;;5014792;28;20297;-76
2021/07/17 03:58:13;;;;;;;2.80;0.90;;;17.60;99.90;;;;;;5013598;28;20271;-77
2021/07/17 04:00:40;;;;;;;0.75;0.75;;;17.60;99.90;;;;;;5019396;28;20236;-76
2021/07/17 04:03:07;;;;;;;0.90;0.90;;;17.60;99.90;;;;;;5017961;28;20286;-75
2021/07/17 04:05:36;;;;;;;0.77;0.77;;;17.50;99.90;;;;;;5016051;28;20223;-75
2021/07/17 04:08:03;;;;;;;0.93;0.68;;;17.40;99.90;;;;;;5012877;28;20216;-76
2021/07/17 04:10:31;;;;;;;1.05;0.65;;;17.40;99.90;;;;;;5017993;28;20717;-77
2021/07/17 04:12:58;;;;;;;0.63;0.63;;;17.40;99.90;;;;;;5013282;28;20251;-76
2021/07/17 04:15:26;;;;;;;1.52;0.77;;;17.40;99.90;;;;;;5014852;28;20228;-76
2021/07/17 04:17:53;;;;;;;0.68;0.68;;;17.20;99.90;;;;;;5018543;28;20222;-76
2021/07/17 04:20:20;;;;;;;1.08;1.08;;;17.10;99.90;;;;;;5011281;28;20222;-76
2021/07/17 04:22:48;;;;;;;0.90;0.90;;;16.90;99.90;;;;;;5015827;28;20293;-77
2021/07/17 04:25:15;;;;;;;0.95;0.80;;;16.80;99.90;;;;;;5015364;28;20236;-77
2021/07/17 04:27:42;;;;;;;0.93;0.90;;;16.80;99.90;;;;;;5016894;28;20859;-76
2021/07/17 04:30:11;;;;;;;1.02;0.95;;;16.90;99.90;;;;;;5016215;28;20227;-76
2021/07/17 04:32:39;;;;;;;0.80;0.80;;;17.10;99.90;;;;;;5022168;28;20880;-76
2021/07/17 04:35:07;;;;;;;1.50;0.75;;;17.30;99.90;;;;;;5022158;28;20235;-76
2021/07/17 04:37:35;;;;;;;0.65;0.65;;;17.40;99.90;;;;;;5015708;28;20570;-76
2021/07/17 04:40:02;;;;;;;0.70;0.70;;;17.60;99.90;;;;;;5018192;28;20230;-76
2021/07/17 04:42:29;;;;;;;1.75;0.80;;;17.70;99.90;;;;;;5016797;28;20228;-78
2021/07/17 04:44:56;;;;;;;0.80;0.80;;;17.80;99.90;;;;;;5018554;28;20651;-76
2021/07/17 04:47:23;;;;;;;0.75;0.75;;;17.80;99.90;;;;;;5014259;28;20234;-76
2021/07/17 04:49:52;;;;;;;0.77;0.77;;;17.80;99.90;;;;;;5010007;28;20592;-76
2021/07/17 04:52:19;;;;;;;0.88;0.88;;;17.80;99.90;;;;;;5011721;28;20935;-76
2021/07/17 04:54:46;;;;;;;0.80;0.80;;;17.80;99.90;;;;;;5010137;28;20254;-76
2021/07/17 04:57:13;;;;;;;0.90;0.90;;;17.90;99.90;;;;;;5012342;28;20282;-76
2021/07/17 04:59:40;;;;;;;0.80;0.80;;;17.80;99.90;;;;;;5022250;28;20223;-76
2021/07/17 05:02:07;;;;;;;3.40;1.05;;;17.80;99.90;;;;;;5016491;28;20230;-77
2021/07/17 05:04:34;;;;;;;0.75;0.75;;;17.70;99.90;;;;;;5013141;28;20581;-75
2021/07/17 05:07:02;;;;;;;0.88;0.80;;;17.70;99.90;;;;;;5022777;28;20273;-76
2021/07/17 05:09:29;;;;;;;0.70;0.70;;;17.70;99.90;;;;;;5016247;28;20230;-76
2021/07/17 05:11:56;;;;;;;0.90;0.80;;;17.80;99.90;;;;;;5026607;28;20228;-75
2021/07/17 05:14:23;;;;;;;0.80;0.80;;;17.80;99.90;;;;;;5018085;28;20228;-76
2021/07/17 05:16:50;;;;;;;0.70;0.70;;;17.90;99.90;;;;;;5016914;28;20310;-75
2021/07/17 05:19:18;;;;;;;0.80;0.80;;;17.90;99.90;;;;;;5018585;28;20219;-75
2021/07/17 05:21:45;;;;;;;1.02;0.68;;;18.00;99.90;;;;;;5019687;28;20817;-75
2021/07/17 05:24:14;;;;;;;0.90;0.90;;;18.10;99.90;;;;;;5016074;28;20855;-76
2021/07/17 05:26:41;;;;;;;0.82;0.80;;;18.20;99.90;;;;;;5015356;28;20228;-78
2021/07/17 05:29:08;;;;;;;0.80;0.80;;;18.30;99.90;;;;;;5011667;28;20282;-76
2021/07/17 05:31:35;;;;;;;0.57;0.57;;;18.30;99.90;;;;;;5018619;28;20232;-76
2021/07/17 05:34:02;;;;;;;0.77;0.77;;;18.30;99.90;;;;;;5017617;28;20749;-76
2021/07/17 05:36:29;;;;;;;1.25;0.80;;;18.30;99.90;;;;;;5020590;28;20679;-78
2021/07/17 05:38:56;;;;;;;2.15;0.60;;;18.30;99.90;;;;;;5021864;28;20305;-76
2021/07/17 05:41:24;;;;;;;0.90;0.90;;;18.40;99.90;;;;;;5019042;28;20655;-76
2021/07/17 05:43:51;;;;;;;0.68;0.68;;;18.40;99.90;;;;;;5015843;28;20757;-77
2021/07/17 05:46:18;;;;;;;0.82;0.82;;;18.30;99.90;;;;;;5023753;28;20231;-76
2021/07/17 05:48:45;;;;;;;1.73;0.80;;;18.40;99.90;;;;;;5019178;28;20694;-76
2021/07/17 05:51:12;;;;;;;2.25;1.10;;;18.30;99.90;;;;;;5015371;28;20648;-77
2021/07/17 05:53:39;;;;;;;4.93;1.60;;;18.50;99.90;;;;;;5022071;28;20278;-76
2021/07/17 05:56:06;;;;;;;1.67;1.20;;;18.60;99.90;;;;;;5021324;28;20239;-76
2021/07/17 05:58:34;;;;;;;2.97;1.20;;;18.70;99.90;;;;;;5023320;28;20223;-77
2021/07/17 06:01:01;;;;;;;2.95;1.27;;;18.70;99.90;;;;;;5023436;28;20278;-76
2021/07/17 06:03:28;;;;;;;3.72;1.13;;;18.70;99.90;;;;;;5030556;28;20227;-76
2021/07/17 06:05:55;;;;;;;0.95;0.95;;;18.80;99.90;;;;;;5020862;28;20228;-76
2021/07/17 06:08:22;;;;;;;0.90;0.90;;;18.90;99.90;;;;;;5016937;28;20267;-76
2021/07/17 06:10:49;;;;;;;0.93;0.80;;;19.10;99.90;;;;;;5019465;28;20215;-76
2021/07/17 06:13:16;;;;;;;1.45;1.00;;;19.20;99.90;;;;;;5014777;28;20697;-76
2021/07/17 06:15:45;;;;;;;3.17;0.95;;;19.30;99.90;;;;;;5018336;28;20220;-76
2021/07/17 06:18:12;;;;;;;2.67;1.35;;;19.40;99.90;;;;;;5017811;28;20219;-78
2021/07/17 06:20:39;;;;;;;1.60;1.20;;;19.40;99.90;;;;;;5019846;28;20627;-76
2021/07/17 06:23:06;;;;;;;0.90;0.90;;;19.30;99.90;;;;;;5020707;28;20235;-76
2021/07/17 06:25:33;;;;;;;1.20;1.10;;;19.20;99.90;;;;;;5017573;28;20273;-77
2021/07/17 06:28:00;;;;;;;1.80;1.05;;;19.00;99.90;;;;;;5017351;28;20228;-77
2021/07/17 06:30:27;;;;;;;1.48;1.10;;;18.80;99.90;;;;;;5011894;28;20232;-76
2021/07/17 06:32:55;;;;;;;1.00;1.00;;;18.80;99.90;;;;;;5015505;28;20234;-76
2021/07/17 06:35:22;;;;;;;1.35;1.20;;;18.80;99.90;;;;;;5015120;28;20227;-77
2021/07/17 06:37:49;;;;;;;1.13;1.13;;;18.70;99.90;;;;;;5009414;28;20251;-78
2021/07/17 06:40:18;;;;;;;2.25;1.00;;;18.70;99.90;;;;;;5012061;28;20220;-76
2021/07/17 06:42:46;;;;;;;2.10;1.30;;;18.80;99.90;;;;;;5009677;28;20904;-76
2021/07/17 06:45:14;;;;;;;1.10;1.00;;;18.80;99.90;;;;;;5007314;28;20220;-76
2021/07/17 06:47:41;;;;;;;1.10;1.00;;;18.90;99.90;;;;;;5012561;28;20293;-76
2021/07/17 06:50:11;;;;;;;1.55;1.33;;;19.00;99.90;;;;;;5018236;28;20683;-78
2021/07/17 06:52:38;;;;;;;1.05;1.05;;;19.10;99.90;;;;;;5021222;28;20239;-77
2021/07/17 06:55:08;;;;;;;0.95;0.85;;;19.20;99.90;;;;;;5013500;28;21722;-76
2021/07/17 06:57:37;;;;;;;2.30;1.08;;;19.30;99.90;;;;;;5013016;28;20223;-76
2021/07/17 07:00:06;;;;;;;1.00;1.00;;;19.40;99.90;;;;;;5020421;28;20299;-77
2021/07/17 07:02:33;;;;;;;0.95;0.93;;;19.40;99.90;;;;;;5015856;28;20231;-78
2021/07/17 07:05:00;;;;;;;1.05;1.00;;;19.30;99.90;;;;;;5019548;28;20224;-76
2021/07/17 07:07:29;;;;;;;1.83;1.20;;;19.30;99.90;;;;;;5022719;28;20706;-76
2021/07/17 07:09:56;;;;;;;2.78;1.30;;;19.20;99.90;;;;;;5015163;28;20692;-77
2021/07/17 07:12:23;;;;;;;1.25;1.25;;;19.00;99.90;;;;;;5020476;28;20231;-76
2021/07/17 07:14:50;;;;;;;1.48;1.15;;;19.00;99.90;;;;;;5019205;28;20783;-77
2021/07/17 07:17:17;;;;;;;3.33;1.02;;;19.20;99.90;;;;;;5017692;28;20289;-77
2021/07/17 07:19:44;;;;;;;2.10;1.20;;;19.50;99.90;;;;;;5020341;28;20228;-78
2021/07/17 07:22:14;;;;;;;1.35;1.13;;;19.70;99.90;;;;;;5014600;28;20228;-76
2021/07/17 07:24:42;;;;;;;1.80;1.27;;;19.70;99.90;;;;;;5018731;28;20223;-77
2021/07/17 07:27:09;;;;;;;2.00;1.40;;;19.60;99.90;;;;;;5022345;28;20282;-77
2021/07/17 07:29:36;;;;;;;1.45;1.10;;;19.50;99.90;;;;;;5023907;28;20574;-76
2021/07/17 07:32:04;;;;;;;1.02;0.93;;;19.50;99.90;;;;;;5017970;28;20223;-77
2021/07/17 07:34:31;;;;;;;2.15;0.90;;;19.60;99.90;;;;;;5018796;28;20301;-77
2021/07/17 07:36:58;;;;;;;1.85;1.50;;;19.80;99.90;;;;;;5021736;28;20266;-77
2021/07/17 07:39:25;;;;;;;1.30;1.20;;;19.90;99.90;;;;;;5024585;28;20290;-77
2021/07/17 07:41:53;;;;;;;1.45;1.20;;;19.90;99.90;;;;;;5030325;28;20231;-76
2021/07/17 07:44:20;;;;;;;1.15;1.05;;;19.80;99.90;;;;;;5018230;28;20602;-77
2021/07/17 07:46:49;;;;;;;1.30;1.20;;;19.70;99.90;;;;;;5023614;28;20234;-76
2021/07/17 07:49:16;;;;;;;1.30;1.20;;;19.60;99.90;;;;;;5022536;28;20224;-76
2021/07/17 07:51:43;;;;;;;1.40;1.30;;;19.70;99.90;;;;;;5024104;28;20293;-76
2021/07/17 07:54:10;;;;;;;1.92;1.20;;;19.70;99.90;;;;;;5020299;28;20277;-77
2021/07/17 07:56:37;;;;;;;1.10;1.10;;;19.70;99.90;;;;;;5020538;28;20239;-77
2021/07/17 07:59:06;;;;;;;1.23;1.13;;;19.70;99.90;;;;;;5020137;28;20737;-77
2021/07/17 08:01:33;;;;;;;1.85;1.00;;;19.80;99.90;;;;;;5016876;28;20654;-77
2021/07/17 08:04:00;;;;;;;1.50;1.40;;;19.80;99.90;;;;;;5019309;28;20224;-77
2021/07/17 08:06:27;;;;;;;1.13;1.10;;;19.90;99.90;;;;;;5019033;28;20277;-77
2021/07/17 08:08:55;;;;;;;1.58;1.40;;;19.90;99.90;;;;;;5018853;28;20726;-77
2021/07/17 08:11:22;;;;;;;1.52;1.20;;;20.00;99.90;;;;;;5017538;28;20228;-79
2021/07/17 08:13:49;;;;;;;1.40;1.10;;;20.00;99.90;;;;;;5023879;28;20223;-76
2021/07/17 08:16:17;;;;;;;1.27;1.17;;;20.00;99.90;;;;;;5032614;28;20286;-77
2021/07/17 08:18:44;;;;;;;1.30;1.30;;;20.00;99.90;;;;;;5030743;28;20235;-78
2021/07/17 08:21:11;;;;;;;1.13;1.10;;;20.10;99.90;;;;;;5025498;28;20708;-76
2021/07/17 08:23:38;;;;;;;1.42;1.33;;;20.20;99.90;;;;;;5021234;28;20580;-78
2021/07/17 08:26:05;;;;;;;2.65;1.30;;;20.20;99.90;;;;;;5024493;28;20736;-77
2021/07/17 08:28:32;;;;;;;3.70;1.30;;;20.10;99.90;;;;;;5024098;28;20272;-77
2021/07/17 08:31:00;;;;;;;1.40;1.30;;;20.10;99.90;;;;;;5025292;28;20640;-76
2021/07/17 08:33:28;;;;;;;1.40;1.30;;;20.20;99.90;;;;;;5018272;28;20317;-77
2021/07/17 08:35:55;;;;;;;1.58;1.10;;;20.50;99.90;;;;;;5026820;28;20281;-77
2021/07/17 08:38:22;;;;;;;1.25;1.20;;;20.60;99.90;;;;;;5030699;28;20290;-77
2021/07/17 08:40:54;;;;;;;1.23;1.10;;;20.90;99.90;;;;;;5019185;28;20220;-77
2021/07/17 08:43:22;;;;;;;1.25;1.15;;;20.90;99.90;;;;;;5016398;28;20697;-77
2021/07/17 08:45:49;;;;;;;1.13;1.13;;;21.00;99.90;;;;;;5019206;28;20277;-77
2021/07/17 08:48:18;;;;;;;1.33;1.23;;;21.10;99.90;;;;;;5025863;28;20220;-77
2021/07/17 08:50:47;;;;;;;1.40;1.30;;;21.10;99.90;;;;;;5025811;28;20231;-77
2021/07/17 08:53:17;;;;;;;3.47;1.05;;;21.10;99.90;;;;;;5021522;28;20232;-78
2021/07/17 08:55:44;;;;;;;2.42;1.40;;;21.20;99.90;;;;;;5027092;28;20228;-76
2021/07/17 08:58:11;;;;;;;1.85;1.30;;;21.30;99.90;;;;;;5023456;28;20652;-77
2021/07/17 09:00:42;;;;;;;1.60;1.33;;;21.30;99.90;;;;;;5022654;28;20236;-76
2021/07/17 09:03:11;;;;;;;1.73;1.40;;;21.40;99.90;;;;;;5017953;28;20229;-77
2021/07/17 09:05:44;;;;;;;2.15;1.40;;;21.40;99.90;;;;;;5028280;28;20292;-77
2021/07/17 09:08:14;;;;;;;1.48;1.38;;;21.40;99.90;;;;;;5022359;28;20623;-78
2021/07/17 09:10:43;;;;;;;1.83;1.60;;;21.40;99.90;;;;;;5024820;28;20218;-78
2021/07/17 09:13:16;;;;;;;1.30;1.20;;;21.50;99.90;;;;;;5020201;28;20477;-78
2021/07/17 09:15:54;;;;;;;1.65;1.20;;;21.60;99.90;;;;;;5018980;28;20651;-77
2021/07/17 09:18:26;;;;;;;1.60;1.10;;;21.70;99.90;;;;;;5027894;28;20303;-78
2021/07/17 09:20:59;;;;;;;1.50;1.15;;;21.80;99.90;;;;;;5027945;28;20277;-77
2021/07/17 09:23:31;;;;;;;1.10;1.10;;;22.00;99.90;;;;;;5026722;28;20228;-77
2021/07/17 09:26:01;;;;;;;0.95;0.95;;;22.10;99.90;;;;;;5025079;28;20231;-76
2021/07/17 09:28:30;;;;;;;1.27;0.90;;;22.30;99.90;;;;;;5027756;28;20286;-77
2021/07/17 09:30:58;;;;;;;0.95;0.95;;;22.40;99.90;;;;;;5023915;28;20216;-77
2021/07/17 09:33:26;;;;;;;1.40;0.98;;;22.50;99.90;;;;;;5022965;28;20641;-77
2021/07/17 09:35:55;;;;;;;1.17;1.08;;;22.50;99.90;;;;;;5026394;28;20219;-77
2021/07/17 09:38:23;;;;;;;0.93;0.90;;;22.60;99.90;;;;;;5025144;28;20633;-76
2021/07/17 09:40:54;;;;;;;1.00;1.00;;;22.70;99.90;;;;;;5017652;28;20224;-77
2021/07/17 09:43:30;;;;;;;0.90;0.90;;;22.70;99.90;;;;;;5026197;28;20220;-78
2021/07/17 09:45:58;;;;;;;2.03;1.00;;;22.70;99.90;;;;;;5025977;28;20698;-77
2021/07/17 09:48:27;;;;;;;0.85;0.85;;;22.70;99.90;;;;;;5018156;28;20565;-78
2021/07/17 09:50:55;;;;;;;1.60;1.00;;;22.80;99.90;;;;;;5019173;28;20334;-78
2021/07/17 09:53:43;;;;;;;1.20;1.10;;;22.90;99.90;;;;;;5019904;28;20216;-78
2021/07/17 09:56:14;;;;;;;0.85;0.85;;;22.90;99.90;;;;;;5026511;28;20314;-78
2021/07/17 09:58:41;;;;;;;1.10;1.00;;;23.00;99.90;;;;;;5022000;28;20960;-77
2021/07/17 10:01:35;;;;;;;2.78;1.35;;;23.30;99.90;;;;;;5022374;28;20773;-78
2021/07/17 10:04:06;;;;;;;1.10;1.10;;;23.40;99.90;;;;;;5017426;28;20215;-77
2021/07/17 10:06:36;;;;;;;1.10;1.00;;;23.80;99.90;;;;;;5018287;28;20318;-77
2021/07/17 10:09:05;;;;;;;0.75;0.75;;;24.30;99.90;;;;;;5012015;28;20224;-78
2021/07/17 10:11:34;;;;;;;1.13;0.90;;;24.60;99.90;;;;;;5025505;28;20231;-77
2021/07/17 10:14:16;;;;;;;1.23;0.90;;;24.80;99.90;;;;;;5012304;28;20228;-78
2021/07/17 10:16:43;;;;;;;1.30;1.10;;;25.20;99.90;;;;;;5028513;28;20301;-78
2021/07/17 10:19:10;;;;;;;1.42;1.23;;;25.40;99.90;;;;;;5021300;28;20254;-78
2021/07/17 10:21:37;;;;;;;1.63;1.10;;;25.20;99.90;;;;;;5020016;28;20232;-78
2021/07/17 10:24:05;;;;;;;1.85;1.17;;;24.90;99.90;;;;;;5017234;28;20224;-78
2021/07/17 10:26:34;;;;;;;1.23;0.90;;;24.80;99.90;;;;;;5011454;28;20219;-78
2021/07/17 10:29:05;;;;;;;1.30;1.20;;;24.70;99.90;;;;;;5016571;28;20224;-78
2021/07/17 10:31:33;;;;;;;1.90;1.15;;;24.50;99.90;;;;;;5018633;28;20277;-78
2021/07/17 10:34:00;;;;;;;1.80;1.00;;;24.60;99.90;;;;;;5021827;28;20271;-78
2021/07/17 10:36:27;;;;;;;3.03;0.90;;;24.60;99.90;;;;;;5016325;28;20224;-78
2021/07/17 10:38:59;;;;;;;1.27;1.17;;;24.60;99.90;;;;;;5020635;28;20773;-78
2021/07/17 10:41:28;;;;;;;1.02;1.02;;;24.60;99.90;;;;;;5015925;28;20648;-78
2021/07/17 10:43:56;;;;;;;1.10;1.10;;;24.70;99.90;;;;;;5016719;28;20293;-78
2021/07/17 10:46:34;;;;;;;2.05;0.90;;;24.80;99.90;;;;;;5018501;28;20656;-78
2021/07/17 10:49:04;;;;;;;1.17;1.10;;;24.90;99.90;;;;;;5014429;28;20331;-78
2021/07/17 10:51:35;;;;;;;1.13;1.10;;;24.90;99.90;;;;;;5026659;28;20732;-78
2021/07/17 10:54:04;;;;;;;0.98;0.90;;;24.80;99.90;;;;;;5027805;28;20231;-78
2021/07/17 10:56:43;;;;;;;1.27;1.17;;;24.80;99.90;;;;;;5030625;28;20260;-78
2021/07/17 10:59:43;;;;;;;3.75;1.20;;;24.60;99.90;;;;;;5024684;28;20227;-79
2021/07/17 11:02:12;;;;;;;1.35;1.00;;;24.50;99.90;;;;;;5020610;28;20223;-79
2021/07/17 11:04:45;;;;;;;0.80;0.80;;;24.30;99.90;;;;;;5027253;28;20602;-78
2021/07/17 11:07:36;;;;;;;1.05;1.05;;;24.30;99.90;;;;;;5026574;28;20876;-79
2021/07/17 11:10:11;;;;;;;1.00;1.00;;;24.20;99.90;;;;;;5016801;28;20216;-79
2021/07/17 11:12:47;;;;;;;0.98;0.98;;;24.20;99.90;;;;;;5012006;28;20302;-78
2021/07/17 11:15:39;;;;;;;0.90;0.90;;;24.10;99.90;;;;;;5013334;28;20653;-79
2021/07/17 11:18:24;;;;;;;1.10;1.10;;;24.10;99.90;;;;;;5019814;28;20232;-79
2021/07/17 11:20:58;;;;;;;0.90;0.90;;;24.10;99.90;;;;;;5007321;28;20249;-79
2021/07/17 11:26:25;;;;;;;0.90;0.90;;;24.00;99.90;;;;;;5006342;28;20215;-79
2021/07/17 11:29:00;;;;;;;0.80;0.80;;;24.00;99.90;;;;;;5037237;28;20218;-79
2021/07/17 11:32:08;;;;;;;0.93;0.93;;;24.00;99.90;;;;;;5005361;28;20211;-79
2021/07/17 11:34:38;;;;;;;1.38;1.27;;;23.90;99.90;;;;;;5031214;28;20304;-79
2021/07/17 11:37:10;;;;;;;0.90;0.90;;;23.90;99.90;;;;;;5038183;28;20277;-79
2021/07/17 11:39:40;;;;;;;1.20;1.10;;;24.00;99.90;;;;;;5031611;28;20237;-79
2021/07/17 11:42:09;;;;;;;1.10;1.10;;;24.10;99.90;;;;;;5034749;28;20227;-79
2021/07/17 11:44:38;;;;;;;1.02;1.02;;;24.30;99.90;;;;;;5029952;28;20310;-79
2021/07/17 11:47:10;;;;;;;0.85;0.85;;;24.50;99.90;;;;;;5032644;28;20301;-80
2021/07/17 11:49:39;;;;;;;0.90;0.90;;;24.60;99.90;;;;;;5025660;28;20306;-79
2021/07/17 11:52:08;;;;;;;1.23;0.90;;;24.70;99.90;;;;;;5026698;28;20234;-79
2021/07/17 11:54:37;;;;;;;1.30;0.70;;;24.80;99.90;;;;;;5023524;28;20218;-79
2021/07/17 11:57:10;;;;;;;1.30;1.08;;;25.00;99.90;;;;;;5026763;28;20211;-79
2021/07/17 11:59:38;;;;;;;0.82;0.80;;;25.00;99.90;;;;;;5030664;28;20598;-79
2021/07/17 12:02:10;;;;;;;1.10;1.10;;;25.10;99.90;;;;;;5032791;28;20249;-79
2021/07/17 12:04:39;;;;;;;1.15;0.98;;;25.10;99.90;;;;;;5028916;28;20227;-79
2021/07/17 12:07:10;;;;;;;2.13;1.08;;;25.10;99.90;;;;;;5024789;28;20243;-79
2021/07/17 12:09:39;;;;;;;1.42;1.17;;;25.10;99.90;;;;;;5032802;28;20229;-79
2021/07/17 12:12:18;;;;;;;1.30;1.20;;;25.00;99.90;;;;;;5025496;28;20697;-79
2021/07/17 12:14:46;;;;;;;1.08;1.08;;;24.90;99.90;;;;;;5016628;28;20219;-79
2021/07/17 12:17:22;;;;;;;0.90;0.90;;;24.80;99.90;;;;;;5036177;28;20277;-79
2021/07/17 12:20:00;;;;;;;1.20;1.10;;;24.70;99.90;;;;;;5019802;28;20688;-79
2021/07/17 12:22:28;;;;;;;1.83;1.33;;;24.70;99.90;;;;;;5028593;28;20234;-79
2021/07/17 12:25:04;;;;;;;1.00;1.00;;;24.70;99.90;;;;;;5038521;28;20734;-79
2021/07/17 12:27:31;;;;;;;1.35;1.25;;;24.70;99.90;;;;;;5032554;28;20273;-79
2021/07/17 12:29:58;;;;;;;1.40;1.30;;;24.60;99.90;;;;;;5028697;28;20215;-79
2021/07/17 12:32:26;;;;;;;1.40;1.30;;;24.60;99.90;;;;;;5045788;28;20224;-79
2021/07/17 12:34:57;;;;;;;1.15;1.08;;;24.50;99.90;;;;;;5034759;28;20273;-79
2021/07/17 12:37:28;;;;;;;1.40;1.30;;;24.70;99.90;;;;;;5035362;28;20223;-79
2021/07/17 12:40:09;;;;;;;1.20;1.20;;;24.80;99.90;;;;;;5030486;28;20224;-80
2021/07/17 12:42:43;;;;;;;1.52;1.42;;;24.90;99.90;;;;;;5025077;28;20620;-79
2021/07/17 12:45:16;;;;;;;1.55;1.30;;;25.00;99.90;;;;;;5032683;28;20224;-79
2021/07/17 12:47:50;;;;;;;1.10;1.10;;;25.10;99.90;;;;;;5023553;28;21552;-79
2021/07/17 12:50:21;;;;;;;1.25;1.20;;;25.20;99.90;;;;;;5033198;28;20219;-79
2021/07/17 12:52:48;;;;;;;1.20;1.20;;;25.30;99.90;;;;;;5034839;28;20314;-79
2021/07/17 12:55:15;;;;;;;1.40;1.30;;;25.50;99.90;;;;;;5025588;28;20223;-79
2021/07/17 12:57:42;;;;;;;1.10;1.10;;;25.60;99.90;;;;;;5026037;28;20303;-79
2021/07/17 13:00:11;;;;;;;1.40;1.30;;;25.70;99.90;;;;;;5028298;28;20227;-78